createdAt,value
2017-10-11T00:00:13.857Z,1009.21
2017-10-11T00:00:40.009Z,1009.18
2017-10-11T00:01:06.139Z,1009.14
2017-10-11T00:01:32.254Z,1009.15
2017-10-11T00:01:58.373Z,1009.14
2017-10-11T00:02:24.501Z,1009.12
2017-10-11T00:02:50.621Z,1009.18
2017-10-11T00:03:16.748Z,1009.18
2017-10-11T00:03:42.871Z,1009.14
2017-10-11T00:04:08.992Z,1009.18
2017-10-11T00:04:35.133Z,1009.16
2017-10-11T00:05:01.254Z,1009.16
2017-10-11T00:05:27.381Z,1009.16
2017-10-11T00:05:53.505Z,1009.17
2017-10-11T00:06:19.622Z,1009.12
2017-10-11T00:06:45.749Z,1009.15
2017-10-11T00:07:11.870Z,1009.17
2017-10-11T00:07:37.999Z,1009.11
2017-10-11T00:08:04.127Z,1009.14
2017-10-11T00:08:30.244Z,1009.12
2017-10-11T00:08:56.371Z,1009.21
2017-10-11T00:09:22.498Z,1009.14
2017-10-11T00:09:48.634Z,1009.17
2017-10-11T00:10:14.741Z,1009.11
2017-10-11T00:10:40.864Z,1009.1
2017-10-11T00:11:06.988Z,1009.08
2017-10-11T00:11:33.106Z,1009.13
2017-10-11T00:11:59.236Z,1009.16
2017-10-11T00:12:25.355Z,1009.13
2017-10-11T00:12:51.482Z,1009.13
2017-10-11T00:13:17.599Z,1009.12
2017-10-11T00:13:43.720Z,1009.1
2017-10-11T00:14:09.849Z,1009.06
2017-10-11T00:14:35.967Z,1009.09
2017-10-11T00:15:02.092Z,1009.09
2017-10-11T00:15:28.209Z,1009.14
2017-10-11T00:15:54.337Z,1009.13
2017-10-11T00:16:20.477Z,1009.02
2017-10-11T00:16:46.655Z,1009.04
2017-10-11T00:17:12.791Z,1009.13
2017-10-11T00:17:38.940Z,1009.05
2017-10-11T00:18:05.086Z,1009.09
2017-10-11T00:18:31.225Z,1009.1
2017-10-11T00:18:57.380Z,1009.05
2017-10-11T00:19:23.520Z,1009.1
2017-10-11T00:19:49.669Z,1009.07
2017-10-11T00:20:15.811Z,1009.08
2017-10-11T00:20:41.959Z,1009.06
2017-10-11T00:21:08.109Z,1009.13
2017-10-11T00:21:34.253Z,1009.1
2017-10-11T00:22:00.396Z,1009.07
2017-10-11T00:22:26.563Z,1009.08
2017-10-11T00:22:52.713Z,1009.1
2017-10-11T00:23:18.853Z,1009.09
2017-10-11T00:23:45.007Z,1009.09
2017-10-11T00:24:11.148Z,1009.08
2017-10-11T00:24:37.301Z,1009.05
2017-10-11T00:25:03.448Z,1009.07
2017-10-11T00:25:29.591Z,1009.04
2017-10-11T00:25:55.741Z,1009.05
2017-10-11T00:26:21.885Z,1009.08
2017-10-11T00:26:48.042Z,1009.04
2017-10-11T00:27:14.178Z,1009.06
2017-10-11T00:27:40.321Z,1009.07
2017-10-11T00:28:06.506Z,1009.12
2017-10-11T00:28:32.656Z,1009.05
2017-10-11T00:28:58.798Z,1009.1
2017-10-11T00:29:24.943Z,1009.06
2017-10-11T00:29:51.093Z,1009.04
2017-10-11T00:30:17.239Z,1009.07
2017-10-11T00:30:43.389Z,1008.99
2017-10-11T00:31:09.532Z,1009.02
2017-10-11T00:31:35.686Z,1009.03
2017-10-11T00:32:01.826Z,1009
2017-10-11T00:32:27.973Z,1009.06
2017-10-11T00:32:54.114Z,1009.01
2017-10-11T00:33:20.263Z,1009.03
2017-10-11T00:33:46.411Z,1009.03
2017-10-11T00:34:12.587Z,1009.01
2017-10-11T00:34:38.738Z,1009.04
2017-10-11T00:35:04.884Z,1009.02
2017-10-11T00:35:31.030Z,1009.02
2017-10-11T00:35:57.176Z,1009.09
2017-10-11T00:36:23.327Z,1009.07
2017-10-11T00:36:49.462Z,1009.08
2017-10-11T00:37:15.605Z,1009.01
2017-10-11T00:37:41.761Z,1009.03
2017-10-11T00:38:07.903Z,1009.03
2017-10-11T00:38:34.049Z,1009.07
2017-10-11T00:39:00.199Z,1009.04
2017-10-11T00:39:26.348Z,1009.01
2017-10-11T00:39:52.490Z,1009.01
2017-10-11T00:40:18.640Z,1009.04
2017-10-11T00:40:44.793Z,1009.02
2017-10-11T00:41:10.941Z,1009.01
2017-10-11T00:41:37.083Z,1009
2017-10-11T00:42:03.234Z,1009.04
2017-10-11T00:42:29.373Z,1009.09
2017-10-11T00:42:55.527Z,1009
2017-10-11T00:43:21.673Z,1008.95
2017-10-11T00:43:47.844Z,1009.08
2017-10-11T00:44:13.993Z,1009
2017-10-11T00:44:40.163Z,1009.04
2017-10-11T00:45:06.305Z,1008.99
2017-10-11T00:45:32.459Z,1008.97
2017-10-11T00:45:58.606Z,1008.94
2017-10-11T00:46:24.753Z,1009.05
2017-10-11T00:46:50.895Z,1008.98
2017-10-11T00:47:17.048Z,1009.01
2017-10-11T00:47:43.197Z,1009.03
2017-10-11T00:48:09.337Z,1008.94
2017-10-11T00:48:35.482Z,1009.07
2017-10-11T00:49:01.634Z,1009.01
2017-10-11T00:49:27.776Z,1009.04
2017-10-11T00:49:53.922Z,1009.09
2017-10-11T00:50:20.075Z,1008.98
2017-10-11T00:50:46.215Z,1009.04
2017-10-11T00:51:12.365Z,1009
2017-10-11T00:51:38.506Z,1008.99
2017-10-11T00:52:04.678Z,1009.05
2017-10-11T00:52:30.854Z,1009.02
2017-10-11T00:52:56.999Z,1009.02
2017-10-11T00:53:23.165Z,1009.01
2017-10-11T00:53:49.312Z,1009.13
2017-10-11T00:54:15.468Z,1009.01
2017-10-11T00:54:41.614Z,1008.96
2017-10-11T00:55:07.765Z,1008.96
2017-10-11T00:55:33.904Z,1009
2017-10-11T00:56:00.052Z,1008.98
2017-10-11T00:56:26.200Z,1008.96
2017-10-11T00:56:52.340Z,1008.93
2017-10-11T00:57:18.492Z,1008.99
2017-10-11T00:57:44.635Z,1008.94
2017-10-11T00:58:10.809Z,1008.95
2017-10-11T00:58:36.952Z,1008.95
2017-10-11T00:59:03.089Z,1009.02
2017-10-11T00:59:29.249Z,1008.95
2017-10-11T00:59:55.389Z,1008.94
2017-10-11T01:00:21.534Z,1008.92
2017-10-11T01:00:47.676Z,1008.96
2017-10-11T01:01:13.825Z,1008.98
2017-10-11T01:01:39.965Z,1009.08
2017-10-11T01:02:06.115Z,1009.03
2017-10-11T01:02:32.252Z,1008.97
2017-10-11T01:02:58.408Z,1009.08
2017-10-11T01:03:24.556Z,1008.95
2017-10-11T01:03:50.697Z,1008.96
2017-10-11T01:04:16.839Z,1008.98
2017-10-11T01:04:42.982Z,1009.04
2017-10-11T01:05:09.132Z,1008.95
2017-10-11T01:05:35.276Z,1009.04
2017-10-11T01:06:01.418Z,1008.95
2017-10-11T01:06:27.587Z,1008.96
2017-10-11T01:06:53.718Z,1008.98
2017-10-11T01:07:19.860Z,1009
2017-10-11T01:07:46.005Z,1009
2017-10-11T01:08:12.166Z,1008.99
2017-10-11T01:08:38.308Z,1009
2017-10-11T01:09:04.459Z,1008.98
2017-10-11T01:09:30.609Z,1009.02
2017-10-11T01:09:56.753Z,1009.02
2017-10-11T01:10:22.902Z,1008.99
2017-10-11T01:10:49.041Z,1009
2017-10-11T01:11:15.192Z,1009.04
2017-10-11T01:11:41.332Z,1009.05
2017-10-11T01:12:07.511Z,1009
2017-10-11T01:12:33.650Z,1008.98
2017-10-11T01:12:59.796Z,1009.02
2017-10-11T01:13:25.946Z,1009.02
2017-10-11T01:13:52.087Z,1009.01
2017-10-11T01:14:18.264Z,1009.02
2017-10-11T01:14:44.410Z,1008.99
2017-10-11T01:15:10.554Z,1008.93
2017-10-11T01:15:36.692Z,1009
2017-10-11T01:16:02.847Z,1008.96
2017-10-11T01:16:28.990Z,1008.97
2017-10-11T01:16:55.137Z,1008.98
2017-10-11T01:17:21.283Z,1008.95
2017-10-11T01:17:47.423Z,1008.98
2017-10-11T01:18:13.568Z,1008.93
2017-10-11T01:18:39.752Z,1009
2017-10-11T01:19:05.926Z,1008.92
2017-10-11T01:19:32.075Z,1009
2017-10-11T01:19:58.222Z,1008.98
2017-10-11T01:20:24.365Z,1008.93
2017-10-11T01:20:50.504Z,1008.95
2017-10-11T01:21:16.652Z,1008.92
2017-10-11T01:21:42.801Z,1008.98
2017-10-11T01:22:08.966Z,1008.93
2017-10-11T01:22:35.115Z,1008.98
2017-10-11T01:23:01.264Z,1009.08
2017-10-11T01:23:27.427Z,1009.04
2017-10-11T01:23:53.578Z,1008.9
2017-10-11T01:24:19.731Z,1008.93
2017-10-11T01:24:45.873Z,1008.93
2017-10-11T01:25:12.023Z,1008.9
2017-10-11T01:25:38.172Z,1008.94
2017-10-11T01:26:04.319Z,1008.95
2017-10-11T01:26:30.463Z,1008.94
2017-10-11T01:26:56.605Z,1009.02
2017-10-11T01:27:22.767Z,1008.91
2017-10-11T01:27:48.924Z,1008.93
2017-10-11T01:28:15.073Z,1008.92
2017-10-11T01:28:41.222Z,1008.99
2017-10-11T01:29:07.364Z,1008.87
2017-10-11T01:29:33.520Z,1008.9
2017-10-11T01:29:59.657Z,1008.88
2017-10-11T01:30:25.802Z,1008.9
2017-10-11T01:30:51.952Z,1008.9
2017-10-11T01:31:18.102Z,1008.9
2017-10-11T01:31:44.242Z,1008.97
2017-10-11T01:32:10.390Z,1008.92
2017-10-11T01:32:36.540Z,1008.94
2017-10-11T01:33:02.682Z,1008.91
2017-10-11T01:33:28.830Z,1008.86
2017-10-11T01:33:55.008Z,1008.88
2017-10-11T01:34:21.155Z,1008.88
2017-10-11T01:34:47.306Z,1008.85
2017-10-11T01:35:13.473Z,1008.81
2017-10-11T01:35:39.629Z,1008.83
2017-10-11T01:36:05.770Z,1008.85
2017-10-11T01:36:31.919Z,1008.86
2017-10-11T01:36:58.063Z,1009.02
2017-10-11T01:37:24.210Z,1008.87
2017-10-11T01:37:50.352Z,1008.88
2017-10-11T01:38:16.492Z,1008.84
2017-10-11T01:38:42.642Z,1008.89
2017-10-11T01:39:08.799Z,1008.88
2017-10-11T01:39:34.942Z,1008.84
2017-10-11T01:40:01.089Z,1008.87
2017-10-11T01:40:27.238Z,1008.95
2017-10-11T01:40:53.381Z,1008.89
2017-10-11T01:41:19.522Z,1008.92
2017-10-11T01:41:45.671Z,1008.85
2017-10-11T01:42:11.815Z,1008.89
2017-10-11T01:42:37.965Z,1008.88
2017-10-11T01:43:04.115Z,1008.91
2017-10-11T01:43:30.260Z,1008.89
2017-10-11T01:43:56.410Z,1008.86
2017-10-11T01:44:22.553Z,1008.89
2017-10-11T01:44:48.701Z,1008.84
2017-10-11T01:45:14.867Z,1008.89
2017-10-11T01:45:41.013Z,1008.98
2017-10-11T01:46:07.168Z,1008.82
2017-10-11T01:46:33.307Z,1008.85
2017-10-11T01:46:59.456Z,1008.87
2017-10-11T01:47:25.595Z,1008.87
2017-10-11T01:47:51.750Z,1008.89
2017-10-11T01:48:17.899Z,1008.89
2017-10-11T01:48:44.035Z,1008.88
2017-10-11T01:49:10.200Z,1008.92
2017-10-11T01:49:36.357Z,1008.88
2017-10-11T01:50:02.495Z,1008.9
2017-10-11T01:50:28.647Z,1008.92
2017-10-11T01:50:54.791Z,1008.92
2017-10-11T01:51:20.935Z,1008.9
2017-10-11T01:51:47.108Z,1008.94
2017-10-11T01:52:13.280Z,1009.02
2017-10-11T01:52:39.430Z,1008.94
2017-10-11T01:53:05.594Z,1008.96
2017-10-11T01:53:31.742Z,1008.97
2017-10-11T01:53:57.886Z,1008.97
2017-10-11T01:54:24.035Z,1008.87
2017-10-11T01:54:50.182Z,1008.9
2017-10-11T01:55:16.331Z,1008.93
2017-10-11T01:55:42.480Z,1008.97
2017-10-11T01:56:08.617Z,1008.96
2017-10-11T01:56:34.770Z,1008.96
2017-10-11T01:57:00.930Z,1008.94
2017-10-11T01:57:27.072Z,1008.94
2017-10-11T01:57:53.234Z,1008.94
2017-10-11T01:58:19.363Z,1008.97
2017-10-11T01:58:45.512Z,1008.89
2017-10-11T01:59:11.659Z,1008.96
2017-10-11T01:59:37.804Z,1008.94
2017-10-11T02:00:03.951Z,1008.96
2017-10-11T02:00:30.094Z,1008.95
2017-10-11T02:00:56.242Z,1008.91
2017-10-11T02:01:22.381Z,1009.01
2017-10-11T02:01:48.531Z,1008.95
2017-10-11T02:02:14.681Z,1008.93
2017-10-11T02:02:40.826Z,1008.98
2017-10-11T02:03:06.974Z,1008.96
2017-10-11T02:03:33.136Z,1008.99
2017-10-11T02:03:59.261Z,1009.09
2017-10-11T02:04:25.411Z,1009.02
2017-10-11T02:04:51.566Z,1009.01
2017-10-11T02:05:17.706Z,1008.96
2017-10-11T02:05:43.851Z,1009
2017-10-11T02:06:09.996Z,1009.02
2017-10-11T02:06:36.146Z,1009.01
2017-10-11T02:07:02.292Z,1009.07
2017-10-11T02:07:28.432Z,1009.1
2017-10-11T02:07:54.573Z,1009.01
2017-10-11T02:08:20.718Z,1009.04
2017-10-11T02:08:46.866Z,1009.03
2017-10-11T02:09:13.019Z,1009.01
2017-10-11T02:09:39.195Z,1009.03
2017-10-11T02:10:05.344Z,1009.05
2017-10-11T02:10:31.480Z,1009.04
2017-10-11T02:10:57.633Z,1009.06
2017-10-11T02:11:23.811Z,1009.04
2017-10-11T02:11:49.952Z,1009.1
2017-10-11T02:12:16.096Z,1009.06
2017-10-11T02:12:42.249Z,1009.04
2017-10-11T02:13:08.395Z,1009.04
2017-10-11T02:13:34.537Z,1009.08
2017-10-11T02:14:00.690Z,1009.05
2017-10-11T02:14:26.848Z,1009.01
2017-10-11T02:14:52.988Z,1009.05
2017-10-11T02:15:19.121Z,1009.09
2017-10-11T02:15:45.267Z,1009.04
2017-10-11T02:16:11.421Z,1009.05
2017-10-11T02:16:37.593Z,1009.04
2017-10-11T02:17:03.740Z,1009.04
2017-10-11T02:17:29.884Z,1009.03
2017-10-11T02:17:56.030Z,1009.01
2017-10-11T02:18:22.180Z,1009.03
2017-10-11T02:18:48.324Z,1009.06
2017-10-11T02:19:14.470Z,1009.03
2017-10-11T02:19:40.619Z,1009.01
2017-10-11T02:20:06.765Z,1009.06
2017-10-11T02:20:32.910Z,1009.03
2017-10-11T02:20:59.056Z,1009.01
2017-10-11T02:21:25.199Z,1009.03
2017-10-11T02:21:51.342Z,1008.99
2017-10-11T02:22:17.499Z,1008.99
2017-10-11T02:22:43.629Z,1009.02
2017-10-11T02:23:09.774Z,1009.03
2017-10-11T02:23:35.916Z,1008.98
2017-10-11T02:24:02.076Z,1008.98
2017-10-11T02:24:28.225Z,1009.01
2017-10-11T02:24:54.371Z,1008.99
2017-10-11T02:25:20.520Z,1008.98
2017-10-11T02:25:46.659Z,1008.96
2017-10-11T02:26:12.818Z,1008.99
2017-10-11T02:26:38.975Z,1009.01
2017-10-11T02:27:05.123Z,1008.99
2017-10-11T02:27:31.294Z,1009
2017-10-11T02:27:57.438Z,1008.97
2017-10-11T02:28:23.595Z,1008.95
2017-10-11T02:28:49.746Z,1009.02
2017-10-11T02:29:15.895Z,1008.96
2017-10-11T02:29:42.074Z,1008.98
2017-10-11T02:30:08.209Z,1008.95
2017-10-11T02:30:34.382Z,1009
2017-10-11T02:31:00.724Z,1008.91
2017-10-11T02:31:26.911Z,1008.94
2017-10-11T02:31:53.065Z,1008.92
2017-10-11T02:32:19.263Z,1008.92
2017-10-11T02:32:45.390Z,1008.92
2017-10-11T02:33:11.567Z,1008.92
2017-10-11T02:33:37.706Z,1008.91
2017-10-11T02:34:03.845Z,1008.86
2017-10-11T02:34:29.990Z,1008.92
2017-10-11T02:34:56.142Z,1008.92
2017-10-11T02:35:22.285Z,1008.89
2017-10-11T02:35:48.438Z,1008.9
2017-10-11T02:36:14.580Z,1008.84
2017-10-11T02:36:40.750Z,1008.93
2017-10-11T02:37:06.901Z,1008.95
2017-10-11T02:37:33.049Z,1008.94
2017-10-11T02:37:59.187Z,1008.91
2017-10-11T02:38:25.336Z,1008.91
2017-10-11T02:38:51.490Z,1008.94
2017-10-11T02:39:17.628Z,1009.05
2017-10-11T02:39:43.779Z,1008.88
2017-10-11T02:40:09.941Z,1008.91
2017-10-11T02:40:36.072Z,1008.91
2017-10-11T02:41:02.217Z,1008.91
2017-10-11T02:41:28.366Z,1008.9
2017-10-11T02:41:54.512Z,1008.84
2017-10-11T02:42:20.656Z,1008.8
2017-10-11T02:42:46.804Z,1008.83
2017-10-11T02:43:12.945Z,1008.87
2017-10-11T02:43:39.088Z,1008.86
2017-10-11T02:44:05.239Z,1008.78
2017-10-11T02:44:31.381Z,1008.94
2017-10-11T02:44:57.535Z,1008.94
2017-10-11T02:45:23.678Z,1008.9
2017-10-11T02:45:49.824Z,1008.95
2017-10-11T02:46:15.967Z,1008.99
2017-10-11T02:46:42.108Z,1008.88
2017-10-11T02:47:08.253Z,1008.87
2017-10-11T02:47:34.406Z,1008.9
2017-10-11T02:48:00.556Z,1008.9
2017-10-11T02:48:26.701Z,1008.98
2017-10-11T02:48:52.845Z,1008.88
2017-10-11T02:49:18.995Z,1008.9
2017-10-11T02:49:45.137Z,1008.93
2017-10-11T02:50:11.287Z,1008.93
2017-10-11T02:50:37.455Z,1008.92
2017-10-11T02:51:03.625Z,1008.91
2017-10-11T02:51:29.780Z,1008.84
2017-10-11T02:51:55.925Z,1008.87
2017-10-11T02:52:22.093Z,1008.88
2017-10-11T02:52:48.268Z,1008.86
2017-10-11T02:53:14.403Z,1008.85
2017-10-11T02:53:40.551Z,1008.87
2017-10-11T02:54:06.702Z,1008.89
2017-10-11T02:54:32.853Z,1008.85
2017-10-11T02:54:58.991Z,1008.89
2017-10-11T02:55:25.145Z,1008.85
2017-10-11T02:55:51.285Z,1008.89
2017-10-11T02:56:17.437Z,1008.81
2017-10-11T02:56:43.574Z,1008.84
2017-10-11T02:57:09.753Z,1008.8
2017-10-11T02:57:35.937Z,1008.79
2017-10-11T02:58:02.079Z,1008.84
2017-10-11T02:58:28.224Z,1008.86
2017-10-11T02:58:54.371Z,1008.79
2017-10-11T02:59:20.513Z,1008.87
2017-10-11T02:59:46.662Z,1008.8
2017-10-11T03:00:12.813Z,1008.76
2017-10-11T03:00:38.958Z,1008.8
2017-10-11T03:01:05.101Z,1008.82
2017-10-11T03:01:31.251Z,1008.8
2017-10-11T03:01:57.409Z,1008.8
2017-10-11T03:02:23.543Z,1008.86
2017-10-11T03:02:49.696Z,1008.85
2017-10-11T03:03:15.860Z,1008.82
2017-10-11T03:03:42.005Z,1008.79
2017-10-11T03:04:08.144Z,1008.78
2017-10-11T03:04:34.296Z,1008.84
2017-10-11T03:05:00.442Z,1008.81
2017-10-11T03:05:26.592Z,1008.78
2017-10-11T03:05:52.741Z,1008.83
2017-10-11T03:06:18.889Z,1008.83
2017-10-11T03:06:45.028Z,1008.81
2017-10-11T03:07:11.181Z,1008.82
2017-10-11T03:07:37.322Z,1008.71
2017-10-11T03:08:03.466Z,1008.79
2017-10-11T03:08:29.638Z,1008.75
2017-10-11T03:08:55.781Z,1008.72
2017-10-11T03:09:21.930Z,1008.72
2017-10-11T03:09:48.072Z,1008.7
2017-10-11T03:10:14.227Z,1008.67
2017-10-11T03:10:40.362Z,1008.68
2017-10-11T03:11:06.516Z,1008.57
2017-10-11T03:11:32.664Z,1008.66
2017-10-11T03:11:58.809Z,1008.63
2017-10-11T03:12:24.965Z,1008.62
2017-10-11T03:12:51.123Z,1008.54
2017-10-11T03:13:17.273Z,1008.64
2017-10-11T03:13:43.418Z,1008.67
2017-10-11T03:14:09.561Z,1008.64
2017-10-11T03:14:35.711Z,1008.67
2017-10-11T03:15:01.850Z,1008.66
2017-10-11T03:15:28.003Z,1008.72
2017-10-11T03:15:54.144Z,1008.68
2017-10-11T03:16:20.295Z,1008.68
2017-10-11T03:16:46.446Z,1008.68
2017-10-11T03:17:12.586Z,1008.66
2017-10-11T03:17:38.732Z,1008.73
2017-10-11T03:18:04.873Z,1008.69
2017-10-11T03:18:31.056Z,1008.76
2017-10-11T03:18:57.202Z,1008.73
2017-10-11T03:19:23.349Z,1008.73
2017-10-11T03:19:49.499Z,1008.72
2017-10-11T03:20:15.644Z,1008.71
2017-10-11T03:20:41.820Z,1008.72
2017-10-11T03:21:07.972Z,1008.73
2017-10-11T03:21:34.110Z,1008.68
2017-10-11T03:22:00.257Z,1008.72
2017-10-11T03:22:26.405Z,1008.68
2017-10-11T03:22:52.550Z,1008.7
2017-10-11T03:23:18.705Z,1008.65
2017-10-11T03:23:44.855Z,1008.63
2017-10-11T03:24:10.996Z,1008.66
2017-10-11T03:24:37.173Z,1008.69
2017-10-11T03:25:03.315Z,1008.61
2017-10-11T03:25:29.459Z,1008.68
2017-10-11T03:25:55.602Z,1008.74
2017-10-11T03:26:21.754Z,1008.65
2017-10-11T03:26:47.922Z,1008.69
2017-10-11T03:27:14.087Z,1008.7
2017-10-11T03:27:40.232Z,1008.66
2017-10-11T03:28:06.368Z,1008.67
2017-10-11T03:28:32.521Z,1008.64
2017-10-11T03:28:58.665Z,1008.7
2017-10-11T03:29:24.815Z,1008.65
2017-10-11T03:29:50.954Z,1008.66
2017-10-11T03:30:17.108Z,1008.68
2017-10-11T03:30:43.258Z,1008.65
2017-10-11T03:31:09.399Z,1008.68
2017-10-11T03:31:35.565Z,1008.64
2017-10-11T03:32:01.713Z,1008.6
2017-10-11T03:32:27.857Z,1008.59
2017-10-11T03:32:54.006Z,1008.57
2017-10-11T03:33:20.148Z,1008.58
2017-10-11T03:33:46.304Z,1008.61
2017-10-11T03:34:12.445Z,1008.54
2017-10-11T03:34:38.586Z,1008.55
2017-10-11T03:35:04.733Z,1008.59
2017-10-11T03:35:30.886Z,1008.59
2017-10-11T03:35:57.029Z,1008.58
2017-10-11T03:36:23.172Z,1008.59
2017-10-11T03:36:49.324Z,1008.55
2017-10-11T03:37:15.467Z,1008.66
2017-10-11T03:37:41.608Z,1008.62
2017-10-11T03:38:07.755Z,1008.59
2017-10-11T03:38:33.899Z,1008.56
2017-10-11T03:39:00.077Z,1008.62
2017-10-11T03:39:26.226Z,1008.55
2017-10-11T03:39:52.369Z,1008.61
2017-10-11T03:40:18.515Z,1008.6
2017-10-11T03:40:44.666Z,1008.58
2017-10-11T03:41:10.813Z,1008.53
2017-10-11T03:41:36.955Z,1008.6
2017-10-11T03:42:03.106Z,1008.55
2017-10-11T03:42:29.267Z,1008.65
2017-10-11T03:42:55.419Z,1008.59
2017-10-11T03:43:21.571Z,1008.59
2017-10-11T03:43:47.715Z,1008.65
2017-10-11T03:44:13.864Z,1008.57
2017-10-11T03:44:40.012Z,1008.58
2017-10-11T03:45:06.150Z,1008.61
2017-10-11T03:45:32.300Z,1008.6
2017-10-11T03:45:58.451Z,1008.62
2017-10-11T03:46:24.593Z,1008.61
2017-10-11T03:46:50.738Z,1008.6
2017-10-11T03:47:16.884Z,1008.54
2017-10-11T03:47:43.036Z,1008.53
2017-10-11T03:48:09.183Z,1008.63
2017-10-11T03:48:35.350Z,1008.61
2017-10-11T03:49:01.489Z,1008.61
2017-10-11T03:49:27.635Z,1008.57
2017-10-11T03:49:53.784Z,1008.6
2017-10-11T03:50:19.933Z,1008.57
2017-10-11T03:50:46.080Z,1008.59
2017-10-11T03:51:12.227Z,1008.64
2017-10-11T03:51:38.374Z,1008.58
2017-10-11T03:52:04.519Z,1008.63
2017-10-11T03:52:30.662Z,1008.65
2017-10-11T03:52:56.816Z,1008.64
2017-10-11T03:53:22.954Z,1008.62
2017-10-11T03:53:49.107Z,1008.56
2017-10-11T03:54:15.247Z,1008.59
2017-10-11T03:54:41.398Z,1008.58
2017-10-11T03:55:07.548Z,1008.56
2017-10-11T03:55:33.691Z,1008.61
2017-10-11T03:55:59.837Z,1008.57
2017-10-11T03:56:25.985Z,1008.55
2017-10-11T03:56:52.130Z,1008.62
2017-10-11T03:57:18.277Z,1008.59
2017-10-11T03:57:44.425Z,1008.63
2017-10-11T03:58:10.563Z,1008.64
2017-10-11T03:58:36.715Z,1008.59
2017-10-11T03:59:02.856Z,1008.59
2017-10-11T03:59:29.009Z,1008.57
2017-10-11T03:59:55.159Z,1008.5
2017-10-11T04:00:21.297Z,1008.53
2017-10-11T04:00:47.445Z,1008.57
2017-10-11T04:01:13.595Z,1008.57
2017-10-11T04:01:39.735Z,1008.64
2017-10-11T04:02:05.885Z,1008.51
2017-10-11T04:02:32.028Z,1008.53
2017-10-11T04:02:58.204Z,1008.52
2017-10-11T04:03:24.342Z,1008.56
2017-10-11T04:03:50.485Z,1008.59
2017-10-11T04:04:16.640Z,1008.67
2017-10-11T04:04:42.789Z,1008.54
2017-10-11T04:05:08.967Z,1008.58
2017-10-11T04:05:35.110Z,1008.53
2017-10-11T04:06:01.254Z,1008.54
2017-10-11T04:06:27.408Z,1008.57
2017-10-11T04:06:53.545Z,1008.51
2017-10-11T04:07:19.685Z,1008.48
2017-10-11T04:07:45.833Z,1008.55
2017-10-11T04:08:11.985Z,1008.6
2017-10-11T04:08:38.131Z,1008.57
2017-10-11T04:09:04.295Z,1008.55
2017-10-11T04:09:30.427Z,1008.54
2017-10-11T04:09:56.574Z,1008.56
2017-10-11T04:10:22.722Z,1008.56
2017-10-11T04:10:48.865Z,1008.52
2017-10-11T04:11:15.011Z,1008.5
2017-10-11T04:11:41.158Z,1008.54
2017-10-11T04:12:07.309Z,1008.56
2017-10-11T04:12:33.452Z,1008.55
2017-10-11T04:12:59.594Z,1008.52
2017-10-11T04:13:25.739Z,1008.59
2017-10-11T04:13:51.884Z,1008.53
2017-10-11T04:14:18.025Z,1008.57
2017-10-11T04:14:44.172Z,1008.59
2017-10-11T04:15:10.320Z,1008.66
2017-10-11T04:15:36.460Z,1008.7
2017-10-11T04:16:02.603Z,1008.58
2017-10-11T04:16:28.782Z,1008.53
2017-10-11T04:16:54.936Z,1008.57
2017-10-11T04:17:21.119Z,1008.55
2017-10-11T04:17:47.262Z,1008.55
2017-10-11T04:18:13.413Z,1008.63
2017-10-11T04:18:39.560Z,1008.55
2017-10-11T04:19:05.708Z,1008.62
2017-10-11T04:19:31.888Z,1008.6
2017-10-11T04:19:58.020Z,1008.61
2017-10-11T04:20:24.172Z,1008.59
2017-10-11T04:20:50.311Z,1008.58
2017-10-11T04:21:16.468Z,1008.58
2017-10-11T04:21:42.609Z,1008.59
2017-10-11T04:22:08.760Z,1008.58
2017-10-11T04:22:34.906Z,1008.56
2017-10-11T04:23:01.053Z,1008.61
2017-10-11T04:23:27.194Z,1008.57
2017-10-11T04:23:53.338Z,1008.56
2017-10-11T04:24:19.490Z,1008.51
2017-10-11T04:24:45.630Z,1008.58
2017-10-11T04:25:11.784Z,1008.61
2017-10-11T04:25:37.926Z,1008.57
2017-10-11T04:26:04.072Z,1008.56
2017-10-11T04:26:30.217Z,1008.56
2017-10-11T04:26:56.366Z,1008.53
2017-10-11T04:27:22.540Z,1008.51
2017-10-11T04:27:48.678Z,1008.48
2017-10-11T04:28:14.836Z,1008.47
2017-10-11T04:28:40.975Z,1008.48
2017-10-11T04:29:07.131Z,1008.53
2017-10-11T04:29:33.262Z,1008.44
2017-10-11T04:29:59.405Z,1008.46
2017-10-11T04:30:25.554Z,1008.58
2017-10-11T04:30:51.703Z,1008.57
2017-10-11T04:31:17.849Z,1008.51
2017-10-11T04:31:44.000Z,1008.54
2017-10-11T04:32:10.195Z,1008.48
2017-10-11T04:32:36.363Z,1008.57
2017-10-11T04:33:02.488Z,1008.59
2017-10-11T04:33:28.632Z,1008.55
2017-10-11T04:33:54.778Z,1008.57
2017-10-11T04:34:20.930Z,1008.58
2017-10-11T04:34:47.078Z,1008.72
2017-10-11T04:35:13.218Z,1008.62
2017-10-11T04:35:39.368Z,1008.48
2017-10-11T04:36:05.507Z,1008.48
2017-10-11T04:36:31.658Z,1008.45
2017-10-11T04:36:57.804Z,1008.56
2017-10-11T04:37:23.967Z,1008.5
2017-10-11T04:37:50.123Z,1008.63
2017-10-11T04:38:16.258Z,1008.54
2017-10-11T04:38:42.409Z,1008.56
2017-10-11T04:39:08.550Z,1008.55
2017-10-11T04:39:34.702Z,1008.54
2017-10-11T04:40:00.843Z,1008.53
2017-10-11T04:40:26.991Z,1008.53
2017-10-11T04:40:53.141Z,1008.55
2017-10-11T04:41:19.284Z,1008.52
2017-10-11T04:41:45.435Z,1008.5
2017-10-11T04:42:11.587Z,1008.54
2017-10-11T04:42:37.727Z,1008.61
2017-10-11T04:43:03.873Z,1008.55
2017-10-11T04:43:30.013Z,1008.52
2017-10-11T04:43:56.163Z,1008.68
2017-10-11T04:44:22.324Z,1008.56
2017-10-11T04:44:48.481Z,1008.59
2017-10-11T04:45:14.642Z,1008.53
2017-10-11T04:45:40.789Z,1008.54
2017-10-11T04:46:06.938Z,1008.57
2017-10-11T04:46:33.078Z,1008.5
2017-10-11T04:46:59.231Z,1008.49
2017-10-11T04:47:25.374Z,1008.59
2017-10-11T04:47:51.531Z,1008.66
2017-10-11T04:48:17.679Z,1008.53
2017-10-11T04:48:43.821Z,1008.5
2017-10-11T04:49:09.960Z,1008.57
2017-10-11T04:49:36.108Z,1008.57
2017-10-11T04:50:02.258Z,1008.49
2017-10-11T04:50:28.394Z,1008.67
2017-10-11T04:50:54.549Z,1008.48
2017-10-11T04:51:20.690Z,1008.43
2017-10-11T04:51:46.833Z,1008.5
2017-10-11T04:52:12.980Z,1008.51
2017-10-11T04:52:39.128Z,1008.49
2017-10-11T04:53:05.275Z,1008.51
2017-10-11T04:53:31.422Z,1008.56
2017-10-11T04:53:57.571Z,1008.59
2017-10-11T04:54:23.720Z,1008.51
2017-10-11T04:54:49.858Z,1008.5
2017-10-11T04:55:16.001Z,1008.48
2017-10-11T04:55:42.151Z,1008.41
2017-10-11T04:56:08.291Z,1008.49
2017-10-11T04:56:34.444Z,1008.44
2017-10-11T04:57:00.592Z,1008.49
2017-10-11T04:57:26.738Z,1008.49
2017-10-11T04:57:52.884Z,1008.49
2017-10-11T04:58:19.028Z,1008.54
2017-10-11T04:58:45.182Z,1008.47
2017-10-11T04:59:11.317Z,1008.46
2017-10-11T04:59:37.459Z,1008.49
2017-10-11T05:00:03.614Z,1008.48
2017-10-11T05:00:29.760Z,1008.45
2017-10-11T05:00:55.911Z,1008.5
2017-10-11T05:01:22.055Z,1008.5
2017-10-11T05:01:48.196Z,1008.44
2017-10-11T05:02:14.353Z,1008.46
2017-10-11T05:02:40.508Z,1008.49
2017-10-11T05:03:06.666Z,1008.44
2017-10-11T05:03:32.813Z,1008.5
2017-10-11T05:03:58.958Z,1008.46
2017-10-11T05:04:25.108Z,1008.49
2017-10-11T05:04:51.258Z,1008.45
2017-10-11T05:05:17.396Z,1008.46
2017-10-11T05:05:43.562Z,1008.43
2017-10-11T05:06:09.715Z,1008.44
2017-10-11T05:06:35.856Z,1008.46
2017-10-11T05:07:02.002Z,1008.56
2017-10-11T05:07:28.144Z,1008.4
2017-10-11T05:07:54.313Z,1008.36
2017-10-11T05:08:20.433Z,1008.29
2017-10-11T05:08:46.587Z,1008.35
2017-10-11T05:09:12.733Z,1008.36
2017-10-11T05:09:38.878Z,1008.42
2017-10-11T05:10:05.021Z,1008.42
2017-10-11T05:10:31.196Z,1008.38
2017-10-11T05:10:57.340Z,1008.34
2017-10-11T05:11:23.479Z,1008.33
2017-10-11T05:11:49.632Z,1008.33
2017-10-11T05:12:15.774Z,1008.36
2017-10-11T05:12:41.925Z,1008.39
2017-10-11T05:13:08.070Z,1008.4
2017-10-11T05:13:34.213Z,1008.46
2017-10-11T05:14:00.356Z,1008.38
2017-10-11T05:14:26.535Z,1008.33
2017-10-11T05:14:52.679Z,1008.36
2017-10-11T05:15:18.822Z,1008.38
2017-10-11T05:15:44.974Z,1008.36
2017-10-11T05:16:11.124Z,1008.39
2017-10-11T05:16:37.267Z,1008.38
2017-10-11T05:17:03.418Z,1008.31
2017-10-11T05:17:29.565Z,1008.37
2017-10-11T05:17:55.712Z,1008.28